Hunt Field
KLND : now visible

Airfield :











YOU CAN JOIN US ON...

 
LOGIN :

Register | Disclaimer

   EN    FR    IT 

 









Legend :    VFR   Marginal VFR   IFR   Intensive IFR   Very Intensive IFR
Visi :
Ceiling :
>= 8 km
>= 3000ft
5 to 8 km
1000 to 3000 ft
1500m to 5 km
500 to 1000 ft
800 to 1500m
200 to 500 ft
< 800m
< 200 ft
Symbols :   Thunderstorms  Fog  Heavy snow  Heavy precipitations  Wind > 20 kt






- Airport Elevation : 5586 ft


KLND - Hunt Field

CURRENT METAR :
  • 071953Z AUTO 30014G26KT 10SM CLR 16/M06 A2993 RMK AO2 PK WND 25030/1914 SLP106 T01561061

EXPIRED METARs :
  • 071853Z AUTO 24016G29KT 10SM CLR 16/M04 A2994 RMK AO2 PK WND 26036/1832 SLP102 T01611044
  • 071753Z AUTO 28020G27KT 10SM CLR 14/M05 A2996 RMK AO2 PK WND 29031/1728 SLP111 T01391050 10139 20039 50004

TAF KLND
Valid from the 07 at 18:00 until the 08 at 18:00 UTC


071723Z 0718/0818 26019G27KT P6SM SCT090
FM080400 25007KT P6SM FEW100 SCT200
FM081700 05008KT P6SM FEW060



MET'MAP, your aeronautical weather chart ! - Copyright ORBIFLY December 2007 - Disclaimer

ORBIFLY MET'MAP TEAM :

Programming & Development : Alexandra Zaïnal
Concept & original design : Baudouin d'Aumeries
Assistance for programming : Marc-Olivier Méhu
Technical & hardware support : Manuel Goepfert

Contact : metmap@orbifly.com




SOURCES & CREDITS :

   NOAA       Earth
Advisory